Portada
METAR-TAF:

METAR-TAF

Aeroports :

Aeroport Internacional Murtala Mohammed

Lagos, Nigèria

latitud: 06-35N, longitud: 003-20E, altitud: 40 m

Observació

L'informe es va fer fa 1 hora i 19 minuts, a les 16:00 UTC
Vent 6 kt del Sud-Est
Temperatura 35°C
Humitat 39%
Pressió 1009 hPa
Visibilitat: 1600 m
calitja

METAR: DNMM 211600Z 14006KT 1600 HZ NSC 35/19 Q1009 NOSIG

Hora: 18:19 (17:19 UTC)

Pronòstic

L'informe es va fer fa 6 hores i 19 minuts, a les 11:00 UTC
Pronòstic vàlid del 21 a les 12 UTC al 22 a les 18 UTC
Vent 10 kt del Est/Nord-Est
Visibilitat: 2000 m
calitja
Evolucionant progressivament
l' 21 a les 15 UTC al 21 a les 17 UTC
Vent 10 kt del Sud
Evolucionant progressivament
l' 21 a les 19 UTC al 21 a les 21 UTC
Vent 2 kt amb direcció variable
Temporalment
l' 22 a les 05 UTC al 22 a les 09 UTC
Visibilitat: 1500 m

TAF: DNMM 211100Z 2112/2218 07010KT 2000 HZ NSC BECMG 2115/2117 17010KT BECMG 2119/2121 VRB02KT TEMPO 2205/2209 1500

Observacions i pronòstics meteorològics de més de 4000 aeroports (METAR i TAF).

Les estacions disponibles són els punts grocs i vermells al mapa.

Posi el ratolí al punt desitjat per veure el nom de l'estació.

Feu clic per veure les observacions i els pronòstics meteorològics.

Per canviar el mapa: feu clic els botons verds amb una creu de color negre per apropar; al botó verd amb un guió per allunyar la imatge; o en les fletxes verdes per a mapes adjacents.


METAR-TAF: